^^
Saratoga-Weather Station Historical Data
Daily Summary for October 29, 2021 Units:  Both    English   Metric
Daily Weekly Monthly Yearly Custom
  High: Low: Average:
Temperature: 43.3 °F /  6.3 °C 41.7 °F /  5.4 °C 42.4 °F /  5.8 °C
Dew Point: 42.6 °F /  5.9 °C 41 °F /  5 °C 41.7 °F /  5.4 °C
Humidity: 97% 97% 97%
Wind Speed: 0mph /  0km/h - 0mph /  0km/h
Wind Gust: 0mph /  0km/h - -
Wind- -
Pressure: 29.9 in /  1013.9 hPa 29.9 in /  1013.2 hPa -
Precipitation: 0 in /  0.0 mm    
Historical Graphs
 
 
Tabular Data for October 29, 2021
Time Temperature Dew Point Pressure Wind Wind Speed Wind Gust Humidity Rainfall Rate (Hourly) solar
00:03 42.6 °F /  5.9 °C 41.9 °F /  5.5 °C 29.9in /  1013.9hPa Calm     97% 0in /  0.0mm 0 W/m2
00:08 42.6 °F /  5.9 °C 41.9 °F /  5.5 °C 29.9in /  1013.9hPa Calm     97% 0in /  0.0mm 0 W/m2
00:13 42.6 °F /  5.9 °C 41.9 °F /  5.5 °C 29.9in /  1013.9hPa Calm     97% 0in /  0.0mm 0 W/m2
00:18 42.6 °F /  5.9 °C 41.9 °F /  5.5 °C 29.9in /  1013.9hPa Calm     97% 0in /  0.0mm 0 W/m2
00:23 43 °F /  6.1 °C 42.3 °F /  5.7 °C 29.9in /  1013.9hPa Calm     97% 0in /  0.0mm 0 W/m2
00:28 42.8 °F /  6 °C 42.1 °F /  5.6 °C 29.9in /  1013.9hPa Calm     97% 0in /  0.0mm 0 W/m2
00:33 42.6 °F /  5.9 °C 41.9 °F /  5.5 °C 29.9in /  1013.9hPa Calm     97% 0in /  0.0mm 0 W/m2
00:38 42.4 °F /  5.8 °C 41.7 °F /  5.4 °C 29.9in /  1013.9hPa Calm     97% 0in /  0.0mm 0 W/m2
00:43 42.4 °F /  5.8 °C 41.7 °F /  5.4 °C 29.9in /  1013.9hPa Calm     97% 0in /  0.0mm 0 W/m2
00:48 42.4 °F /  5.8 °C 41.7 °F /  5.4 °C 29.9in /  1013.5hPa Calm     97% 0in /  0.0mm 0 W/m2
00:53 42.6 °F /  5.9 °C 41.9 °F /  5.5 °C 29.9in /  1013.5hPa Calm     97% 0in /  0.0mm 0 W/m2
00:58 43 °F /  6.1 °C 42.3 °F /  5.7 °C 29.9in /  1013.5hPa Calm     97% 0in /  0.0mm 0 W/m2
01:03 43.2 °F /  6.2 °C 42.4 °F /  5.8 °C 29.9in /  1013.5hPa Calm     97% 0in /  0.0mm 0 W/m2
01:08 43.3 °F /  6.3 °C 42.6 °F /  5.9 °C 29.9in /  1013.5hPa Calm     97% 0in /  0.0mm 0 W/m2
01:13 43.2 °F /  6.2 °C 42.4 °F /  5.8 °C 29.9in /  1013.5hPa Calm     97% 0in /  0.0mm 0 W/m2
01:18 43 °F /  6.1 °C 42.3 °F /  5.7 °C 29.9in /  1013.5hPa Calm     97% 0in /  0.0mm 0 W/m2
01:23 42.6 °F /  5.9 °C 41.9 °F /  5.5 °C 29.9in /  1013.5hPa Calm     97% 0in /  0.0mm 0 W/m2
01:28 42.4 °F /  5.8 °C 41.7 °F /  5.4 °C 29.9in /  1013.5hPa Calm     97% 0in /  0.0mm 0 W/m2
01:33 42.4 °F /  5.8 °C 41.7 °F /  5.4 °C 29.9in /  1013.5hPa Calm     97% 0in /  0.0mm 0 W/m2
01:38 42.6 °F /  5.9 °C 41.9 °F /  5.5 °C 29.9in /  1013.5hPa Calm     97% 0in /  0.0mm 0 W/m2
01:43 42.8 °F /  6 °C 42.1 °F /  5.6 °C 29.9in /  1013.5hPa Calm     97% 0in /  0.0mm 0 W/m2
01:48 42.8 °F /  6 °C 42.1 °F /  5.6 °C 29.9in /  1013.5hPa Calm     97% 0in /  0.0mm 0 W/m2
01:53 42.6 °F /  5.9 °C 41.9 °F /  5.5 °C 29.9in /  1013.5hPa Calm     97% 0in /  0.0mm 0 W/m2
01:58 42.6 °F /  5.9 °C 41.9 °F /  5.5 °C 29.9in /  1013.5hPa Calm     97% 0in /  0.0mm 0 W/m2
02:03 42.4 °F /  5.8 °C 41.7 °F /  5.4 °C 29.9in /  1013.5hPa Calm     97% 0in /  0.0mm 0 W/m2
02:08 42.3 °F /  5.7 °C 41.5 °F /  5.3 °C 29.9in /  1013.5hPa Calm     97% 0in /  0.0mm 0 W/m2
02:13 42.1 °F /  5.6 °C 41.4 °F /  5.2 °C 29.9in /  1013.5hPa Calm     97% 0in /  0.0mm 0 W/m2
02:18 42.1 °F /  5.6 °C 41.4 °F /  5.2 °C 29.9in /  1013.5hPa Calm     97% 0in /  0.0mm 0 W/m2
02:23 42.1 °F /  5.6 °C 41.4 °F /  5.2 °C 29.9in /  1013.5hPa Calm     97% 0in /  0.0mm 0 W/m2
02:28 41.9 °F /  5.5 °C 41.2 °F /  5.1 °C 29.9in /  1013.5hPa Calm     97% 0in /  0.0mm 0 W/m2
02:33 41.9 °F /  5.5 °C 41.2 °F /  5.1 °C 29.9in /  1013.2hPa Calm     97% 0in /  0.0mm 0 W/m2
02:38 41.7 °F /  5.4 °C 41 °F /  5 °C 29.9in /  1013.2hPa Calm     97% 0in /  0.0mm 0 W/m2
02:43 41.7 °F /  5.4 °C 41 °F /  5 °C 29.9in /  1013.2hPa Calm     97% 0in /  0.0mm 0 W/m2
02:48 41.7 °F /  5.4 °C 41 °F /  5 °C 29.9in /  1013.2hPa Calm     97% 0in /  0.0mm 0 W/m2
Juneau County Weather
Compliments of Weather Underground - 2 mb